createdAt,value
2018-09-09T00:02:12.678Z,94.40
2018-09-09T00:04:40.315Z,94.40
2018-09-09T00:07:07.693Z,94.40
2018-09-09T00:09:40.938Z,94.40
2018-09-09T00:12:08.454Z,94.50
2018-09-09T00:14:35.855Z,94.50
2018-09-09T00:17:03.200Z,94.50
2018-09-09T00:19:30.650Z,94.40
2018-09-09T00:21:57.986Z,94.50
2018-09-09T00:24:25.298Z,94.40
2018-09-09T00:26:52.774Z,94.40
2018-09-09T00:29:20.202Z,94.50
2018-09-09T00:31:47.615Z,94.40
2018-09-09T00:34:15.042Z,94.40
2018-09-09T00:36:42.549Z,94.40
2018-09-09T00:39:09.862Z,94.40
2018-09-09T00:41:37.267Z,94.40
2018-09-09T00:44:04.958Z,94.30
2018-09-09T00:46:32.421Z,94.30
2018-09-09T00:49:05.518Z,94.50
2018-09-09T00:51:38.547Z,94.20
2018-09-09T00:54:05.925Z,94.20
2018-09-09T00:56:33.330Z,94.20
2018-09-09T00:59:00.695Z,94.20
2018-09-09T01:01:28.045Z,94.20
2018-09-09T01:03:55.423Z,94.30
2018-09-09T01:06:22.903Z,94.30
2018-09-09T01:08:50.280Z,94.30
2018-09-09T01:11:17.848Z,94.30
2018-09-09T01:13:45.202Z,94.40
2018-09-09T01:16:12.503Z,94.50
2018-09-09T01:18:39.801Z,94.40
2018-09-09T01:21:07.158Z,94.40
2018-09-09T01:23:34.515Z,94.40
2018-09-09T01:26:01.888Z,94.30
2018-09-09T01:28:29.237Z,94.30
2018-09-09T01:30:56.672Z,94.30
2018-09-09T01:33:24.131Z,94.30
2018-09-09T01:35:51.551Z,94.30
2018-09-09T01:38:18.922Z,94.20
2018-09-09T01:40:46.511Z,94.50
2018-09-09T01:43:13.844Z,94.20
2018-09-09T01:45:41.840Z,94.20
2018-09-09T01:48:09.242Z,94.30
2018-09-09T01:50:36.542Z,94.30
2018-09-09T01:53:04.005Z,94.30
2018-09-09T01:55:31.348Z,94.30
2018-09-09T01:57:58.693Z,94.30
2018-09-09T02:00:26.131Z,94.30
2018-09-09T02:02:53.514Z,94.30
2018-09-09T02:05:20.921Z,94.30
2018-09-09T02:07:48.259Z,94.30
2018-09-09T02:10:15.561Z,94.30
2018-09-09T02:12:42.954Z,94.30
2018-09-09T02:15:10.308Z,94.30
2018-09-09T02:17:37.742Z,94.40
2018-09-09T02:20:05.222Z,94.40
2018-09-09T02:22:32.643Z,94.40
2018-09-09T02:24:59.967Z,94.50
2018-09-09T02:27:27.286Z,94.40
2018-09-09T02:29:54.621Z,94.40
2018-09-09T02:32:21.979Z,94.30
2018-09-09T02:34:49.337Z,94.30
2018-09-09T02:37:16.680Z,94.30
2018-09-09T02:39:44.102Z,94.30
2018-09-09T02:42:11.475Z,94.20
2018-09-09T02:44:38.916Z,94.20
2018-09-09T02:47:06.206Z,94.20
2018-09-09T02:49:33.523Z,94.30
2018-09-09T02:52:00.864Z,94.30
2018-09-09T02:54:28.172Z,94.20
2018-09-09T02:56:55.475Z,94.30
2018-09-09T02:59:22.870Z,94.30
2018-09-09T03:01:50.157Z,94.40
2018-09-09T03:04:17.456Z,94.40
2018-09-09T03:06:44.775Z,94.50
2018-09-09T03:09:12.141Z,94.60
2018-09-09T03:11:39.506Z,94.60
2018-09-09T03:14:06.945Z,94.60
2018-09-09T03:16:34.294Z,94.70
2018-09-09T03:19:01.622Z,94.70
2018-09-09T03:21:28.957Z,94.80
2018-09-09T03:23:56.290Z,94.80
2018-09-09T03:26:23.610Z,94.80
2018-09-09T03:28:51.159Z,94.90
2018-09-09T03:31:18.432Z,94.90
2018-09-09T03:33:45.783Z,95.00
2018-09-09T03:36:13.084Z,95.00
2018-09-09T03:38:40.602Z,95.00
2018-09-09T03:41:07.959Z,95.00
2018-09-09T03:43:35.915Z,95.10
2018-09-09T03:46:03.314Z,95.00
2018-09-09T03:48:30.809Z,95.00
2018-09-09T03:50:58.113Z,95.00
2018-09-09T03:53:25.566Z,95.10
2018-09-09T03:55:53.007Z,95.10
2018-09-09T03:58:20.395Z,95.20
2018-09-09T04:00:47.729Z,95.20
2018-09-09T04:03:15.093Z,95.30
2018-09-09T04:05:42.501Z,95.30
2018-09-09T04:08:09.896Z,95.40
2018-09-09T04:10:37.254Z,95.40
2018-09-09T04:13:04.773Z,95.40
2018-09-09T04:15:32.241Z,95.30
2018-09-09T04:17:59.630Z,95.00
2018-09-09T04:20:27.006Z,95.30
2018-09-09T04:22:54.482Z,95.30
2018-09-09T04:25:21.823Z,95.20
2018-09-09T04:27:49.159Z,95.30
2018-09-09T04:30:17.121Z,95.30
2018-09-09T04:32:44.373Z,95.40
2018-09-09T04:35:11.838Z,95.40
2018-09-09T04:37:39.136Z,95.50
2018-09-09T04:40:06.745Z,95.50
2018-09-09T04:42:34.114Z,95.50
2018-09-09T04:45:01.509Z,95.50
2018-09-09T04:47:28.974Z,95.50
2018-09-09T04:49:56.265Z,95.60
2018-09-09T04:52:23.694Z,95.70
2018-09-09T04:54:51.020Z,95.70
2018-09-09T04:57:18.446Z,95.80
2018-09-09T04:59:45.785Z,95.80
2018-09-09T05:02:13.153Z,95.80
2018-09-09T05:04:41.064Z,95.90
2018-09-09T05:07:08.603Z,95.90
2018-09-09T05:09:36.429Z,95.90
2018-09-09T05:12:04.063Z,96.00
2018-09-09T05:14:31.533Z,96.00
2018-09-09T05:16:58.914Z,96.00
2018-09-09T05:19:26.392Z,96.10
2018-09-09T05:21:53.814Z,96.20
2018-09-09T05:24:21.135Z,96.30
2018-09-09T05:26:48.457Z,96.40
2018-09-09T05:29:15.905Z,96.40
2018-09-09T05:31:43.318Z,96.40
2018-09-09T05:34:10.650Z,96.50
2018-09-09T05:36:37.952Z,96.60
2018-09-09T05:39:08.330Z,96.60
2018-09-09T05:41:35.814Z,96.60
2018-09-09T05:44:03.521Z,96.70
2018-09-09T05:46:31.006Z,96.60
2018-09-09T05:48:58.383Z,96.60
2018-09-09T05:51:25.738Z,96.70
2018-09-09T05:53:53.355Z,96.70
2018-09-09T05:56:20.682Z,96.70
2018-09-09T05:58:48.087Z,96.70
2018-09-09T06:01:15.568Z,96.70
2018-09-09T06:03:42.930Z,96.70
2018-09-09T06:06:10.216Z,96.70
2018-09-09T06:08:37.541Z,96.70
2018-09-09T06:11:05.101Z,96.70
2018-09-09T06:13:33.317Z,96.70
2018-09-09T06:16:00.630Z,96.70
2018-09-09T06:18:28.118Z,96.70
2018-09-09T06:20:55.614Z,96.70
2018-09-09T06:23:23.150Z,96.90
2018-09-09T06:25:50.798Z,96.60
2018-09-09T06:28:18.185Z,96.40
2018-09-09T06:30:45.519Z,96.70
2018-09-09T06:33:12.922Z,96.60
2018-09-09T06:35:40.254Z,96.60
2018-09-09T06:38:07.657Z,96.60
2018-09-09T06:40:35.025Z,96.70
2018-09-09T06:43:02.446Z,96.80
2018-09-09T06:45:30.320Z,96.80
2018-09-09T06:47:57.598Z,96.80
2018-09-09T06:50:25.079Z,96.70
2018-09-09T06:52:52.419Z,96.70
2018-09-09T06:55:19.797Z,96.70
2018-09-09T06:57:47.169Z,96.70
2018-09-09T07:00:14.514Z,96.70
2018-09-09T07:02:41.889Z,96.70
2018-09-09T07:05:09.394Z,96.80
2018-09-09T07:07:36.752Z,96.80
2018-09-09T07:10:05.046Z,96.90
2018-09-09T07:12:32.353Z,96.90
2018-09-09T07:14:59.677Z,96.90
2018-09-09T07:17:27.026Z,96.90
2018-09-09T07:19:54.375Z,96.90
2018-09-09T07:22:21.854Z,96.80
2018-09-09T07:24:50.191Z,96.80
2018-09-09T07:27:17.639Z,96.80
2018-09-09T07:29:45.055Z,96.70
2018-09-09T07:32:12.638Z,96.70
2018-09-09T07:34:39.989Z,96.70
2018-09-09T07:37:07.446Z,96.80
2018-09-09T07:39:34.919Z,96.80
2018-09-09T07:42:02.308Z,96.70
2018-09-09T07:44:29.648Z,96.70
2018-09-09T07:46:56.951Z,96.70
2018-09-09T07:49:24.378Z,96.80
2018-09-09T07:51:51.834Z,96.80
2018-09-09T07:54:19.172Z,96.80
2018-09-09T07:56:46.538Z,96.80
2018-09-09T07:59:13.951Z,96.80
2018-09-09T08:01:41.326Z,96.90
2018-09-09T08:04:08.798Z,96.90
2018-09-09T08:06:36.178Z,96.80
2018-09-09T08:09:06.128Z,96.90
2018-09-09T08:11:37.192Z,96.80
2018-09-09T08:14:05.255Z,96.80
2018-09-09T08:16:33.014Z,97.00
2018-09-09T08:19:00.522Z,96.50
2018-09-09T08:21:27.898Z,96.40
2018-09-09T08:23:55.182Z,96.40
2018-09-09T08:26:22.675Z,96.40
2018-09-09T08:28:50.109Z,96.20
2018-09-09T08:31:17.623Z,96.10
2018-09-09T08:33:44.973Z,96.00
2018-09-09T08:36:12.691Z,95.90
2018-09-09T08:38:40.006Z,95.90
2018-09-09T08:41:07.798Z,96.10
2018-09-09T08:43:35.420Z,95.80
2018-09-09T08:46:03.525Z,95.70
2018-09-09T08:48:30.923Z,95.70
2018-09-09T08:50:58.340Z,95.70
2018-09-09T08:53:25.798Z,95.60
2018-09-09T08:55:53.217Z,95.60
2018-09-09T08:58:20.516Z,95.60
2018-09-09T09:00:47.968Z,95.70
2018-09-09T09:03:15.321Z,95.90
2018-09-09T09:05:42.690Z,95.70
2018-09-09T09:08:10.021Z,95.70
2018-09-09T09:10:37.417Z,95.70
2018-09-09T09:13:05.039Z,95.90
2018-09-09T09:15:32.391Z,95.60
2018-09-09T09:17:59.822Z,95.50
2018-09-09T09:20:27.196Z,95.50
2018-09-09T09:22:54.709Z,95.40
2018-09-09T09:25:22.079Z,95.30
2018-09-09T09:27:49.426Z,95.20
2018-09-09T09:30:16.798Z,95.20
2018-09-09T09:32:45.507Z,95.10
2018-09-09T09:35:12.917Z,95.10
2018-09-09T09:37:40.314Z,95.10
2018-09-09T09:40:07.809Z,95.00
2018-09-09T09:42:35.478Z,94.80
2018-09-09T09:45:02.921Z,95.00
2018-09-09T09:47:30.212Z,94.60
2018-09-09T09:49:57.595Z,94.50
2018-09-09T09:52:24.987Z,94.50
2018-09-09T09:54:52.314Z,94.40
2018-09-09T09:57:19.649Z,94.40
2018-09-09T09:59:47.074Z,94.30
2018-09-09T10:02:14.450Z,94.20
2018-09-09T10:04:41.779Z,94.00
2018-09-09T10:07:09.134Z,93.80
2018-09-09T10:09:36.446Z,93.60
2018-09-09T10:12:04.064Z,93.50
2018-09-09T10:14:31.376Z,93.50
2018-09-09T10:16:59.075Z,93.50
2018-09-09T10:19:26.583Z,93.50
2018-09-09T10:21:53.972Z,93.50
2018-09-09T10:24:21.333Z,92.80
2018-09-09T10:26:48.635Z,92.40
2018-09-09T10:29:16.090Z,92.30
2018-09-09T10:31:43.414Z,92.10
2018-09-09T10:34:11.094Z,92.10
2018-09-09T10:36:38.572Z,92.20
2018-09-09T10:39:07.797Z,92.30
2018-09-09T10:41:35.355Z,92.10
2018-09-09T10:44:03.193Z,92.10
2018-09-09T10:46:30.985Z,92.00
2018-09-09T10:48:58.511Z,91.80
2018-09-09T10:51:25.999Z,91.80
2018-09-09T10:53:53.435Z,91.70
2018-09-09T10:56:21.391Z,92.00
2018-09-09T10:58:48.764Z,91.60
2018-09-09T11:01:16.215Z,91.70
2018-09-09T11:03:43.619Z,91.80
2018-09-09T11:06:11.011Z,91.50
2018-09-09T11:08:38.398Z,91.40
2018-09-09T11:11:05.802Z,91.40
2018-09-09T11:13:33.118Z,91.40
2018-09-09T11:16:00.449Z,91.30
2018-09-09T11:18:27.745Z,91.30
2018-09-09T11:20:55.246Z,91.50
2018-09-09T11:23:22.538Z,91.60
2018-09-09T11:25:49.907Z,91.70
2018-09-09T11:28:17.323Z,91.60
2018-09-09T11:30:44.742Z,91.20
2018-09-09T11:33:12.142Z,91.20
2018-09-09T11:35:41.493Z,91.00
2018-09-09T11:38:09.785Z,91.40
2018-09-09T11:40:37.123Z,90.90
2018-09-09T11:43:04.549Z,90.80
2018-09-09T11:45:31.977Z,90.90
2018-09-09T11:47:59.458Z,90.90
2018-09-09T11:50:26.858Z,91.00
2018-09-09T11:52:54.235Z,91.00
2018-09-09T11:55:21.595Z,91.00
2018-09-09T11:57:48.914Z,90.90
2018-09-09T12:00:16.301Z,90.90
2018-09-09T12:02:43.702Z,90.90
2018-09-09T12:05:11.045Z,90.80
2018-09-09T12:07:38.532Z,90.90
2018-09-09T12:10:06.092Z,91.00
2018-09-09T12:12:35.806Z,91.10
2018-09-09T12:15:03.573Z,90.90
2018-09-09T12:17:30.846Z,90.80
2018-09-09T12:19:58.216Z,90.70
2018-09-09T12:22:25.514Z,90.70
2018-09-09T12:24:52.887Z,90.60
2018-09-09T12:27:20.191Z,90.50
2018-09-09T12:29:47.563Z,90.40
2018-09-09T12:32:14.907Z,90.30
2018-09-09T12:34:42.277Z,90.30
2018-09-09T12:37:09.761Z,90.20
2018-09-09T12:39:37.215Z,90.00
2018-09-09T12:42:04.806Z,89.90
2018-09-09T12:44:38.070Z,89.90
2018-09-09T12:47:11.106Z,90.00
2018-09-09T12:49:38.598Z,90.20
2018-09-09T12:52:06.234Z,89.90
2018-09-09T12:54:33.550Z,89.60
2018-09-09T12:57:00.980Z,88.80
2018-09-09T12:59:28.405Z,88.50
2018-09-09T13:01:55.818Z,88.40
2018-09-09T13:04:23.129Z,88.60
2018-09-09T13:06:50.470Z,87.90
2018-09-09T13:09:17.870Z,87.80
2018-09-09T13:11:45.219Z,87.60
2018-09-09T13:14:12.647Z,88.10
2018-09-09T13:16:39.996Z,87.20
2018-09-09T13:19:07.363Z,87.20
2018-09-09T13:21:34.726Z,87.40
2018-09-09T13:24:02.206Z,86.80
2018-09-09T13:26:29.766Z,86.60
2018-09-09T13:28:57.157Z,86.80
2018-09-09T13:31:24.495Z,86.80
2018-09-09T13:33:52.749Z,86.90
2018-09-09T13:36:20.081Z,87.10
2018-09-09T13:38:52.194Z,87.10
2018-09-09T13:41:20.614Z,86.90
2018-09-09T13:43:48.027Z,86.90
2018-09-09T13:46:15.390Z,86.90
2018-09-09T13:48:42.778Z,87.00
2018-09-09T13:51:10.133Z,86.90
2018-09-09T13:53:37.446Z,87.00
2018-09-09T13:56:05.734Z,86.50
2018-09-09T13:58:33.049Z,86.00
2018-09-09T14:01:00.402Z,86.40
2018-09-09T14:03:27.839Z,86.40
2018-09-09T14:05:55.335Z,86.40
2018-09-09T14:08:22.671Z,86.40
2018-09-09T14:10:50.128Z,86.30
2018-09-09T14:13:17.655Z,86.10
2018-09-09T14:15:44.970Z,86.10
2018-09-09T14:18:12.697Z,86.20
2018-09-09T14:20:40.109Z,86.30
2018-09-09T14:23:07.587Z,86.20
2018-09-09T14:25:35.110Z,85.90
2018-09-09T14:28:02.497Z,86.00
2018-09-09T14:30:29.901Z,86.30
2018-09-09T14:32:57.302Z,86.10
2018-09-09T14:35:24.675Z,86.10
2018-09-09T14:37:52.003Z,86.30
2018-09-09T14:40:19.639Z,86.40
2018-09-09T14:42:46.959Z,86.50
2018-09-09T14:45:14.336Z,86.50
2018-09-09T14:47:41.753Z,86.50
2018-09-09T14:50:09.509Z,86.50
2018-09-09T14:52:37.810Z,86.50
2018-09-09T14:55:05.442Z,86.70
2018-09-09T14:57:32.782Z,86.70
2018-09-09T15:00:00.534Z,86.60
2018-09-09T15:02:27.994Z,86.30
2018-09-09T15:04:55.374Z,86.00
2018-09-09T15:07:23.245Z,86.70
2018-09-09T15:09:50.654Z,85.90
2018-09-09T15:12:18.370Z,85.90
2018-09-09T15:14:45.686Z,86.00
2018-09-09T15:17:13.212Z,86.20
2018-09-09T15:19:40.969Z,86.00
2018-09-09T15:22:08.349Z,85.70
2018-09-09T15:24:36.043Z,85.30
2018-09-09T15:27:03.434Z,84.80
2018-09-09T15:29:31.027Z,84.60
2018-09-09T15:31:58.453Z,84.60
2018-09-09T15:34:25.947Z,84.70
2018-09-09T15:36:53.657Z,84.60
2018-09-09T15:39:21.034Z,84.20
2018-09-09T15:41:48.667Z,84.40
2018-09-09T15:44:16.239Z,84.00
2018-09-09T15:46:43.754Z,83.60
2018-09-09T15:49:11.410Z,83.40
2018-09-09T15:51:38.851Z,83.40
2018-09-09T15:54:06.289Z,83.20
2018-09-09T15:56:33.594Z,83.20
2018-09-09T15:59:01.101Z,83.20
2018-09-09T16:01:28.641Z,83.30
2018-09-09T16:03:56.108Z,82.30
2018-09-09T16:06:23.727Z,81.80
2018-09-09T16:08:51.020Z,82.20
2018-09-09T16:11:18.553Z,80.50
2018-09-09T16:13:46.139Z,79.50
2018-09-09T16:16:13.621Z,79.20
2018-09-09T16:18:41.223Z,78.90
2018-09-09T16:21:08.575Z,79.30
2018-09-09T16:23:36.067Z,79.60
2018-09-09T16:26:03.911Z,79.60
2018-09-09T16:28:31.425Z,79.30
2018-09-09T16:30:58.753Z,79.10
2018-09-09T16:33:26.590Z,78.80
2018-09-09T16:35:53.918Z,78.60
2018-09-09T16:38:21.420Z,78.70
2018-09-09T16:40:49.036Z,78.70
2018-09-09T16:43:16.602Z,78.60
2018-09-09T16:45:43.938Z,78.40
2018-09-09T16:48:12.047Z,78.20
2018-09-09T16:50:39.590Z,78.10
2018-09-09T16:53:06.964Z,78.10
2018-09-09T16:55:34.539Z,77.90
2018-09-09T16:58:01.960Z,77.90
2018-09-09T17:00:29.578Z,77.90
2018-09-09T17:02:56.908Z,77.80
2018-09-09T17:05:24.613Z,77.60
2018-09-09T17:07:51.982Z,77.00
2018-09-09T17:10:19.464Z,77.00
2018-09-09T17:12:47.021Z,77.00
2018-09-09T17:15:14.399Z,76.70
2018-09-09T17:17:41.858Z,76.80
2018-09-09T17:20:09.486Z,77.10
2018-09-09T17:22:36.921Z,77.20
2018-09-09T17:25:04.297Z,77.40
2018-09-09T17:27:31.687Z,77.40
2018-09-09T17:29:59.214Z,77.50
2018-09-09T17:32:26.668Z,77.60
2018-09-09T17:34:54.135Z,77.60
2018-09-09T17:37:21.737Z,77.80
2018-09-09T17:39:49.168Z,78.20
2018-09-09T17:42:16.507Z,78.40
2018-09-09T17:44:43.822Z,78.70
2018-09-09T17:47:11.166Z,78.80
2018-09-09T17:49:38.529Z,79.00
2018-09-09T17:52:05.815Z,79.00
2018-09-09T17:54:33.098Z,79.20
2018-09-09T17:57:00.454Z,79.20
2018-09-09T17:59:27.786Z,79.30
2018-09-09T18:01:55.159Z,79.40
2018-09-09T18:04:22.496Z,79.30
2018-09-09T18:06:49.821Z,79.40
2018-09-09T18:09:17.265Z,79.40
2018-09-09T18:11:44.578Z,79.40
2018-09-09T18:14:11.991Z,79.40
2018-09-09T18:16:39.679Z,79.80
2018-09-09T18:19:07.063Z,80.20
2018-09-09T18:21:34.557Z,80.90
2018-09-09T18:24:02.681Z,81.40
2018-09-09T18:26:30.294Z,82.10
2018-09-09T18:28:57.662Z,82.50
2018-09-09T18:31:25.416Z,82.80
2018-09-09T18:33:52.910Z,83.20
2018-09-09T18:36:20.821Z,83.60
2018-09-09T18:38:48.593Z,83.80
2018-09-09T18:41:15.967Z,84.80
2018-09-09T18:43:43.915Z,84.60
2018-09-09T18:46:11.313Z,84.90
2018-09-09T18:48:39.168Z,85.20
2018-09-09T18:51:07.578Z,85.40
2018-09-09T18:53:35.453Z,85.30
2018-09-09T18:56:02.931Z,85.40
2018-09-09T18:58:30.555Z,85.90
2018-09-09T19:00:57.917Z,85.40
2018-09-09T19:03:25.588Z,85.40
2018-09-09T19:05:53.207Z,85.40
2018-09-09T19:08:20.690Z,85.30
2018-09-09T19:10:48.291Z,85.40
2018-09-09T19:13:15.637Z,85.60
2018-09-09T19:15:43.457Z,85.70
2018-09-09T19:18:10.826Z,86.00
2018-09-09T19:20:38.190Z,86.10
2018-09-09T19:23:05.621Z,86.10
2018-09-09T19:25:32.913Z,86.10
2018-09-09T19:28:00.685Z,86.10
2018-09-09T19:30:28.034Z,86.10
2018-09-09T19:32:55.362Z,86.10
2018-09-09T19:35:23.073Z,86.10
2018-09-09T19:37:50.669Z,86.40
2018-09-09T19:40:18.443Z,86.70
2018-09-09T19:42:45.747Z,86.90
2018-09-09T19:45:13.243Z,87.20
2018-09-09T19:47:40.852Z,87.40
2018-09-09T19:50:08.229Z,87.40
2018-09-09T19:52:35.821Z,87.20
2018-09-09T19:55:03.365Z,87.00
2018-09-09T19:57:30.828Z,87.10
2018-09-09T19:59:58.535Z,87.60
2018-09-09T20:02:25.937Z,88.00
2018-09-09T20:04:53.906Z,88.20
2018-09-09T20:07:21.315Z,88.40
2018-09-09T20:09:49.010Z,88.40
2018-09-09T20:12:16.332Z,88.20
2018-09-09T20:14:43.937Z,88.20
2018-09-09T20:17:11.469Z,88.10
2018-09-09T20:19:38.867Z,88.00
2018-09-09T20:22:07.950Z,87.80
2018-09-09T20:24:36.315Z,87.70
2018-09-09T20:27:04.461Z,87.80
2018-09-09T20:29:31.842Z,87.80
2018-09-09T20:31:59.220Z,88.00
2018-09-09T20:34:26.604Z,88.10
2018-09-09T20:36:53.980Z,88.10
2018-09-09T20:39:21.310Z,88.30
2018-09-09T20:41:48.683Z,88.20
2018-09-09T20:44:16.010Z,88.20
2018-09-09T20:46:43.370Z,88.10
2018-09-09T20:49:10.693Z,88.00
2018-09-09T20:51:38.003Z,88.00
2018-09-09T20:54:05.446Z,87.90
2018-09-09T20:56:32.766Z,87.90
2018-09-09T20:59:00.130Z,87.80
2018-09-09T21:01:27.575Z,88.20
2018-09-09T21:03:54.943Z,87.90
2018-09-09T21:06:22.411Z,88.00
2018-09-09T21:08:49.701Z,88.00
2018-09-09T21:11:17.034Z,87.90
2018-09-09T21:13:44.337Z,87.70
2018-09-09T21:16:11.693Z,87.60
2018-09-09T21:18:38.979Z,87.30
2018-09-09T21:21:06.392Z,87.10
2018-09-09T21:23:33.734Z,87.00
2018-09-09T21:26:02.082Z,86.90
2018-09-09T21:28:29.431Z,86.90
2018-09-09T21:30:56.833Z,86.80
2018-09-09T21:33:24.220Z,86.70
2018-09-09T21:35:51.826Z,86.70
2018-09-09T21:38:19.175Z,86.70
2018-09-09T21:40:46.604Z,86.70
2018-09-09T21:43:13.982Z,86.50
2018-09-09T21:45:41.326Z,86.50
2018-09-09T21:48:08.679Z,86.50
2018-09-09T21:50:36.086Z,86.50
2018-09-09T21:53:03.472Z,86.40
2018-09-09T21:55:30.869Z,86.50
2018-09-09T21:57:58.278Z,86.40
2018-09-09T22:00:25.621Z,86.40
2018-09-09T22:02:53.001Z,86.40
2018-09-09T22:05:20.358Z,86.40
2018-09-09T22:07:47.698Z,86.40
2018-09-09T22:10:15.178Z,86.30
2018-09-09T22:12:42.782Z,86.20
2018-09-09T22:15:10.223Z,86.20
2018-09-09T22:17:37.600Z,86.20
2018-09-09T22:20:05.218Z,86.20
2018-09-09T22:22:32.540Z,86.30
2018-09-09T22:24:59.854Z,86.40
2018-09-09T22:27:27.322Z,86.40
2018-09-09T22:29:54.818Z,86.50
2018-09-09T22:32:22.105Z,86.50
2018-09-09T22:34:49.534Z,87.30
2018-09-09T22:37:16.863Z,86.50
2018-09-09T22:39:44.131Z,86.60
2018-09-09T22:42:11.468Z,86.60
2018-09-09T22:44:38.866Z,86.60
2018-09-09T22:47:06.342Z,86.60
2018-09-09T22:49:33.666Z,86.60
2018-09-09T22:52:01.046Z,86.60
2018-09-09T22:54:28.361Z,86.50
2018-09-09T22:56:55.637Z,86.40
2018-09-09T22:59:24.057Z,86.50
2018-09-09T23:01:51.483Z,86.40
2018-09-09T23:04:18.786Z,86.30
2018-09-09T23:06:46.164Z,86.50
2018-09-09T23:09:13.489Z,86.30
2018-09-09T23:11:40.831Z,86.30
2018-09-09T23:14:08.527Z,86.30
2018-09-09T23:16:35.883Z,86.50
2018-09-09T23:19:03.291Z,86.40
2018-09-09T23:21:30.646Z,86.50
2018-09-09T23:23:58.109Z,86.60
2018-09-09T23:26:25.418Z,86.70
2018-09-09T23:28:52.758Z,86.70
2018-09-09T23:31:26.208Z,86.70
2018-09-09T23:33:53.550Z,86.90
2018-09-09T23:36:20.899Z,87.00
2018-09-09T23:38:48.196Z,87.40
2018-09-09T23:41:15.505Z,87.30
2018-09-09T23:43:42.917Z,87.40
2018-09-09T23:46:10.206Z,87.20
2018-09-09T23:48:37.550Z,88.40
2018-09-09T23:51:05.153Z,87.90
2018-09-09T23:53:32.530Z,88.00
2018-09-09T23:56:00.487Z,88.20
2018-09-09T23:58:27.831Z,88.30
